Time;durP1;ratioP1;P1;durP2;ratioP2;P2;SDS_P1;SDS_P2;PMS_P1;PMS_P2;Temp;Humidity;BMP_temperature;BMP_pressure;BME280_temperature;BME280_humidity;BME280_pressure;Samples;Min_cycle;Max_cycle;Signal;HPM_P1;HPM_P2
2023/06/07 00:01:54;;;;;;;;;9.50;7.75;;;;;;;;4956847;28;45382;-73
2023/06/07 00:04:19;;;;;;;;;7.50;6.75;;;;;;;;4956717;28;46895;-73
2023/06/07 00:06:45;;;;;;;;;5.75;5.75;;;;;;;;4956682;28;45429;-73
2023/06/07 00:09:10;;;;;;;;;6.50;5.25;;;;;;;;4956956;28;45375;-73
2023/06/07 00:11:36;;;;;;;;;7.25;7.25;;;;;;;;4943857;28;45500;-73
2023/06/07 00:14:01;;;;;;;;;7.25;7.25;;;;;;;;4936976;28;47013;-73
2023/06/07 00:16:26;;;;;;;;;6.75;6.75;;;;;;;;4936815;28;45403;-73
2023/06/07 00:18:52;;;;;;;;;12.00;8.00;;;;;;;;4937356;28;45315;-73
2023/06/07 00:21:19;;;;;;;;;10.25;8.50;;;;;;;;4937292;28;45324;-73
2023/06/07 00:23:45;;;;;;;;;11.25;8.25;;;;;;;;4955656;28;45646;-73
2023/06/07 00:26:10;;;;;;;;;11.50;8.75;;;;;;;;4955040;28;45302;-73
2023/06/07 00:28:35;;;;;;;;;12.25;9.00;;;;;;;;4957050;28;45365;-73
2023/06/07 00:31:00;;;;;;;;;6.00;6.00;;;;;;;;4956095;28;45537;-73
2023/06/07 00:33:25;;;;;;;;;7.25;7.25;;;;;;;;4955358;28;46731;-72
2023/06/07 00:35:51;;;;;;;;;7.00;7.00;;;;;;;;4956423;28;45448;-73
2023/06/07 00:38:17;;;;;;;;;11.50;8.00;;;;;;;;4957107;28;45314;-73
2023/06/07 00:40:42;;;;;;;;;10.00;7.00;;;;;;;;4956493;28;45548;-73
2023/06/07 00:43:07;;;;;;;;;10.25;8.25;;;;;;;;4955781;28;47042;-72
2023/06/07 00:45:32;;;;;;;;;9.25;7.00;;;;;;;;4956396;28;45580;-73
2023/06/07 00:47:58;;;;;;;;;5.25;5.25;;;;;;;;4956325;28;45468;-73
2023/06/07 00:50:23;;;;;;;;;11.25;10.50;;;;;;;;4956304;28;45453;-73
2023/06/07 00:52:49;;;;;;;;;9.75;8.75;;;;;;;;4956301;28;46774;-73
2023/06/07 00:55:15;;;;;;;;;14.00;9.25;;;;;;;;4955394;28;45497;-73
2023/06/07 00:57:40;;;;;;;;;9.50;9.50;;;;;;;;4955749;28;45566;-73
2023/06/07 01:00:09;;;;;;;;;9.75;8.00;;;;;;;;4956080;28;45702;-72
2023/06/07 01:02:34;;;;;;;;;10.50;10.50;;;;;;;;4956169;28;46107;-73
2023/06/07 01:05:02;;;;;;;;;7.75;7.75;;;;;;;;4954234;28;45867;-72
2023/06/07 01:07:28;;;;;;;;;9.25;6.75;;;;;;;;4956529;28;45413;-73
2023/06/07 01:09:53;;;;;;;;;9.00;8.00;;;;;;;;4955913;28;45460;-73
2023/06/07 01:12:19;;;;;;;;;8.50;7.25;;;;;;;;4938098;28;46186;-73
2023/06/07 01:14:46;;;;;;;;;8.25;6.00;;;;;;;;4936835;28;45497;-73
2023/06/07 01:17:12;;;;;;;;;12.50;8.75;;;;;;;;4937076;28;45373;-73
2023/06/07 01:19:39;;;;;;;;;11.50;8.75;;;;;;;;4954946;28;45407;-73
2023/06/07 01:22:05;;;;;;;;;11.75;10.25;;;;;;;;4955921;28;47054;-73
2023/06/07 01:24:31;;;;;;;;;7.50;7.50;;;;;;;;4955826;28;45453;-73
2023/06/07 01:26:57;;;;;;;;;8.00;6.25;;;;;;;;4956009;28;45357;-73
2023/06/07 01:29:24;;;;;;;;;10.00;7.50;;;;;;;;4955695;28;45386;-73
2023/06/07 01:31:50;;;;;;;;;6.25;6.25;;;;;;;;4955808;28;46412;-73
2023/06/07 01:34:16;;;;;;;;;8.75;7.25;;;;;;;;4956123;28;45658;-73
2023/06/07 01:36:42;;;;;;;;;8.75;7.25;;;;;;;;4955914;28;45366;-73
2023/06/07 01:39:07;;;;;;;;;8.25;7.50;;;;;;;;4955731;28;45315;-73
2023/06/07 01:41:33;;;;;;;;;11.50;8.75;;;;;;;;4940993;28;46633;-73
2023/06/07 01:43:59;;;;;;;;;13.50;10.75;;;;;;;;4956286;28;45401;-72
2023/06/07 01:46:25;;;;;;;;;9.00;9.00;;;;;;;;4958172;28;45411;-73
2023/06/07 01:48:50;;;;;;;;;10.00;10.00;;;;;;;;4947620;28;45502;-73
2023/06/07 01:51:15;;;;;;;;;14.25;9.75;;;;;;;;4939299;28;45405;-72
2023/06/07 01:53:41;;;;;;;;;10.25;9.00;;;;;;;;4942245;28;45379;-72
2023/06/07 01:56:15;;;;;;;;;12.25;9.25;;;;;;;;4959347;28;45353;-73
2023/06/07 01:58:48;;;;;;;;;12.00;11.00;;;;;;;;4959519;28;45516;-73
2023/06/07 02:01:14;;;;;;;;;8.00;7.75;;;;;;;;4958653;28;46282;-73
2023/06/07 02:03:42;;;;;;;;;10.75;9.25;;;;;;;;4958791;28;45318;-72
2023/06/07 02:06:10;;;;;;;;;11.00;11.00;;;;;;;;4957572;28;45493;-73
2023/06/07 02:08:40;;;;;;;;;12.75;12.00;;;;;;;;4958834;28;45381;-72
2023/06/07 02:11:06;;;;;;;;;18.50;13.50;;;;;;;;4950072;28;47099;-72
2023/06/07 02:13:35;;;;;;;;;13.50;10.50;;;;;;;;4939303;28;45609;-72
2023/06/07 02:16:04;;;;;;;;;18.00;11.50;;;;;;;;4939196;28;45414;-72
2023/06/07 02:18:30;;;;;;;;;10.00;9.50;;;;;;;;4939223;28;45439;-72
2023/06/07 02:20:56;;;;;;;;;10.50;9.25;;;;;;;;4938769;28;45969;-73
2023/06/07 02:23:21;;;;;;;;;13.00;10.50;;;;;;;;4938448;28;45272;-73
2023/06/07 02:25:46;;;;;;;;;8.75;7.75;;;;;;;;4939289;28;45374;-72
2023/06/07 02:28:11;;;;;;;;;10.25;10.25;;;;;;;;4939075;28;45437;-73
2023/06/07 02:30:37;;;;;;;;;10.50;10.00;;;;;;;;4938429;28;46249;-72
2023/06/07 02:33:02;;;;;;;;;9.25;7.50;;;;;;;;4939149;28;45617;-72
2023/06/07 02:35:27;;;;;;;;;12.25;11.75;;;;;;;;4938938;28;45409;-73
2023/06/07 02:37:53;;;;;;;;;8.75;8.75;;;;;;;;4939228;28;45396;-72
2023/06/07 02:40:18;;;;;;;;;13.75;12.25;;;;;;;;4938739;28;45492;-72
2023/06/07 02:42:47;;;;;;;;;12.75;11.75;;;;;;;;4951680;28;45393;-72
2023/06/07 02:45:13;;;;;;;;;12.00;10.50;;;;;;;;4958076;28;45377;-73
2023/06/07 02:47:38;;;;;;;;;15.25;13.25;;;;;;;;4958094;28;45328;-73
2023/06/07 02:50:06;;;;;;;;;6.50;5.75;;;;;;;;4957743;28;45331;-73
2023/06/07 02:52:31;;;;;;;;;13.25;10.50;;;;;;;;4958212;28;45425;-72
2023/06/07 02:54:56;;;;;;;;;10.50;9.00;;;;;;;;4957832;28;45469;-72
2023/06/07 02:57:21;;;;;;;;;14.50;10.50;;;;;;;;4958319;28;45565;-73
2023/06/07 02:59:48;;;;;;;;;16.50;14.25;;;;;;;;4954578;28;47217;-72
2023/06/07 03:02:13;;;;;;;;;15.50;11.75;;;;;;;;4946545;28;45433;-72
2023/06/07 03:04:40;;;;;;;;;13.50;12.50;;;;;;;;4957133;28;45531;-72
2023/06/07 03:07:06;;;;;;;;;15.25;11.50;;;;;;;;4957450;28;45433;-72
2023/06/07 03:09:31;;;;;;;;;10.50;8.75;;;;;;;;4957828;28;46981;-72
2023/06/07 03:11:56;;;;;;;;;12.75;12.00;;;;;;;;4945972;28;45715;-72
2023/06/07 03:14:23;;;;;;;;;12.75;11.75;;;;;;;;4957973;28;45680;-72
2023/06/07 03:16:48;;;;;;;;;11.50;8.75;;;;;;;;4957937;28;45503;-72
2023/06/07 03:19:14;;;;;;;;;12.75;11.50;;;;;;;;4957236;28;45613;-72
2023/06/07 03:21:40;;;;;;;;;13.25;12.50;;;;;;;;4958009;28;45385;-72
2023/06/07 03:24:05;;;;;;;;;12.50;8.75;;;;;;;;4957784;28;45299;-72
2023/06/07 03:26:32;;;;;;;;;12.50;10.50;;;;;;;;4957420;28;45568;-72
2023/06/07 03:28:57;;;;;;;;;15.75;13.00;;;;;;;;4957406;28;46951;-72
2023/06/07 03:31:23;;;;;;;;;11.75;11.75;;;;;;;;4957519;28;45533;-72
2023/06/07 03:33:48;;;;;;;;;12.50;11.75;;;;;;;;4957358;28;45335;-73
2023/06/07 03:36:13;;;;;;;;;12.50;11.00;;;;;;;;4956567;28;45394;-71
2023/06/07 03:38:39;;;;;;;;;14.25;10.75;;;;;;;;4956929;28;47361;-71
2023/06/07 03:41:04;;;;;;;;;14.50;11.50;;;;;;;;4957015;28;45414;-72
2023/06/07 03:43:29;;;;;;;;;14.25;12.75;;;;;;;;4957415;28;45404;-71
2023/06/07 03:45:54;;;;;;;;;16.00;13.75;;;;;;;;4957642;28;45496;-71
2023/06/07 03:48:19;;;;;;;;;12.75;12.75;;;;;;;;4955003;28;46456;-72
2023/06/07 03:50:45;;;;;;;;;15.00;12.00;;;;;;;;4956780;28;45381;-72
2023/06/07 03:53:11;;;;;;;;;13.50;11.75;;;;;;;;4956654;28;45349;-72
2023/06/07 03:55:37;;;;;;;;;14.25;12.00;;;;;;;;4957237;28;45472;-71
2023/06/07 03:58:02;;;;;;;;;14.00;14.00;;;;;;;;4955389;28;46712;-71
2023/06/07 04:00:27;;;;;;;;;26.25;19.50;;;;;;;;4956763;28;45464;-71
2023/06/07 04:02:53;;;;;;;;;14.75;13.00;;;;;;;;4955330;28;45416;-71
2023/06/07 04:05:18;;;;;;;;;15.25;14.25;;;;;;;;4956753;28;45310;-71
2023/06/07 04:07:46;;;;;;;;;15.75;15.00;;;;;;;;4955840;28;46236;-71
2023/06/07 04:10:11;;;;;;;;;16.25;14.50;;;;;;;;4955651;28;45594;-71
2023/06/07 04:12:37;;;;;;;;;17.75;12.75;;;;;;;;4937223;28;45743;-72
2023/06/07 04:15:02;;;;;;;;;12.25;11.00;;;;;;;;4951382;28;45521;-72
2023/06/07 04:17:27;;;;;;;;;10.00;9.25;;;;;;;;4956284;28;46360;-71
2023/06/07 04:19:56;;;;;;;;;17.00;14.50;;;;;;;;4956182;28;45461;-72
2023/06/07 04:22:22;;;;;;;;;15.75;13.75;;;;;;;;4956475;28;45421;-72
2023/06/07 04:24:48;;;;;;;;;20.00;17.25;;;;;;;;4956258;28;45520;-71
2023/06/07 04:27:18;;;;;;;;;18.00;15.50;;;;;;;;4955891;28;45400;-71
2023/06/07 04:29:43;;;;;;;;;20.25;17.25;;;;;;;;4956418;28;45378;-72
2023/06/07 04:32:09;;;;;;;;;17.25;15.50;;;;;;;;4956130;28;45389;-71
2023/06/07 04:34:41;;;;;;;;;14.25;14.25;;;;;;;;4956179;28;45426;-71
2023/06/07 04:37:07;;;;;;;;;17.75;16.00;;;;;;;;4956197;28;45408;-72
2023/06/07 04:39:32;;;;;;;;;19.25;17.25;;;;;;;;4954214;28;45418;-72
2023/06/07 04:42:02;;;;;;;;;15.50;14.00;;;;;;;;4956334;28;45455;-71
2023/06/07 04:44:28;;;;;;;;;19.50;19.25;;;;;;;;4956323;28;45309;-71
2023/06/07 04:46:56;;;;;;;;;18.00;15.75;;;;;;;;4955794;28;47058;-71
2023/06/07 04:49:21;;;;;;;;;18.75;17.25;;;;;;;;4955682;28;45381;-72
2023/06/07 04:51:48;;;;;;;;;19.25;14.75;;;;;;;;4956309;28;45475;-71
2023/06/07 04:54:16;;;;;;;;;17.00;16.00;;;;;;;;4955988;28;45392;-72
2023/06/07 04:56:41;;;;;;;;;20.25;17.25;;;;;;;;4956277;28;47085;-73
2023/06/07 04:59:08;;;;;;;;;17.75;15.50;;;;;;;;4955484;28;45444;-72
2023/06/07 05:01:33;;;;;;;;;18.75;17.25;;;;;;;;4955429;28;45493;-72
2023/06/07 05:04:02;;;;;;;;;21.75;19.75;;;;;;;;4955728;28;45352;-72
2023/06/07 05:06:28;;;;;;;;;20.25;17.50;;;;;;;;4955912;28;46343;-68
2023/06/07 05:08:53;;;;;;;;;23.00;20.25;;;;;;;;4955505;28;45464;-68
2023/06/07 05:11:19;;;;;;;;;20.75;18.75;;;;;;;;4945657;28;45386;-69
2023/06/07 05:13:46;;;;;;;;;18.75;16.25;;;;;;;;4940384;28;45393;-68
2023/06/07 05:16:16;;;;;;;;;24.75;19.25;;;;;;;;4955599;28;45483;-68
2023/06/07 05:18:42;;;;;;;;;23.25;20.50;;;;;;;;4955040;28;45439;-68
2023/06/07 05:21:08;;;;;;;;;19.50;18.50;;;;;;;;4955548;28;45438;-67
2023/06/07 05:23:33;;;;;;;;;16.50;15.50;;;;;;;;4955584;28;45338;-67
2023/06/07 05:25:58;;;;;;;;;19.00;18.25;;;;;;;;4954359;28;45382;-67
2023/06/07 05:28:23;;;;;;;;;22.75;19.50;;;;;;;;4954255;28;45575;-67
2023/06/07 05:30:49;;;;;;;;;17.00;16.00;;;;;;;;4955315;28;45450;-66
2023/06/07 05:33:15;;;;;;;;;27.50;20.00;;;;;;;;4955653;28;45494;-67
2023/06/07 05:35:44;;;;;;;;;18.75;18.25;;;;;;;;4955336;28;46198;-66
2023/06/07 05:38:10;;;;;;;;;22.25;20.00;;;;;;;;4955375;28;45390;-66
2023/06/07 05:40:35;;;;;;;;;20.50;19.50;;;;;;;;4955597;28;45458;-66
2023/06/07 05:43:01;;;;;;;;;23.25;20.75;;;;;;;;4955147;28;45477;-67
2023/06/07 05:45:26;;;;;;;;;23.50;15.75;;;;;;;;4954909;28;47252;-67
2023/06/07 05:47:51;;;;;;;;;20.25;18.25;;;;;;;;4974289;28;45450;-68
2023/06/07 05:50:19;;;;;;;;;25.00;21.25;;;;;;;;4958809;28;45418;-69
2023/06/07 05:52:44;;;;;;;;;25.00;24.00;;;;;;;;4936067;28;45572;-69
2023/06/07 05:55:10;;;;;;;;;23.25;17.50;;;;;;;;4934629;28;46645;-69
2023/06/07 05:57:35;;;;;;;;;24.25;22.25;;;;;;;;4936144;28;45306;-68
2023/06/07 06:00:01;;;;;;;;;24.25;21.50;;;;;;;;4935092;28;45403;-69
2023/06/07 06:02:28;;;;;;;;;25.25;23.00;;;;;;;;4936033;28;45408;-69
2023/06/07 06:04:55;;;;;;;;;19.50;18.75;;;;;;;;4936181;28;45982;-69
2023/06/07 06:07:21;;;;;;;;;23.25;21.25;;;;;;;;4935428;28;45350;-69
2023/06/07 06:09:46;;;;;;;;;17.50;16.50;;;;;;;;4936102;28;45299;-68
2023/06/07 06:12:12;;;;;;;;;21.00;18.50;;;;;;;;4953158;28;45328;-69
2023/06/07 06:14:37;;;;;;;;;20.25;19.25;;;;;;;;4955085;28;46287;-69
2023/06/07 06:17:03;;;;;;;;;26.00;22.25;;;;;;;;4953831;28;45378;-69
2023/06/07 06:19:28;;;;;;;;;23.25;20.25;;;;;;;;4949126;28;45417;-69
2023/06/07 06:21:53;;;;;;;;;23.50;19.50;;;;;;;;4944578;28;45435;-68
2023/06/07 06:24:18;;;;;;;;;24.25;21.50;;;;;;;;4954904;28;46042;-69
2023/06/07 06:26:44;;;;;;;;;22.50;20.00;;;;;;;;4955019;28;45382;-69
2023/06/07 06:29:09;;;;;;;;;24.75;19.25;;;;;;;;4949562;28;45529;-68
2023/06/07 06:31:34;;;;;;;;;29.75;24.75;;;;;;;;4947961;28;45899;-69
2023/06/07 06:33:59;;;;;;;;;22.50;20.50;;;;;;;;4941508;28;45690;-68
2023/06/07 06:36:26;;;;;;;;;23.75;20.50;;;;;;;;4937705;28;45581;-69
2023/06/07 06:38:51;;;;;;;;;24.50;18.25;;;;;;;;4939317;28;45369;-68
2023/06/07 06:41:17;;;;;;;;;23.00;20.50;;;;;;;;4939963;28;45440;-69
2023/06/07 06:43:42;;;;;;;;;26.75;21.00;;;;;;;;4958136;28;47152;-69
2023/06/07 06:46:07;;;;;;;;;18.50;15.00;;;;;;;;4958300;28;45323;-69
2023/06/07 06:48:33;;;;;;;;;24.50;21.75;;;;;;;;4958369;28;45325;-68
2023/06/07 06:50:59;;;;;;;;;20.75;19.25;;;;;;;;4958212;28;45403;-68
2023/06/07 06:53:24;;;;;;;;;17.25;15.50;;;;;;;;4947098;28;45444;-68
2023/06/07 06:55:49;;;;;;;;;24.00;21.50;;;;;;;;4941150;28;45383;-68
2023/06/07 06:58:15;;;;;;;;;26.25;22.25;;;;;;;;4944237;28;45428;-69
2023/06/07 07:00:40;;;;;;;;;22.25;21.50;;;;;;;;4934458;28;45426;-69
2023/06/07 07:03:06;;;;;;;;;20.00;19.00;;;;;;;;4938678;28;45679;-69
2023/06/07 07:05:31;;;;;;;;;22.50;19.50;;;;;;;;4950950;28;45849;-69
2023/06/07 07:07:56;;;;;;;;;27.75;18.25;;;;;;;;4938155;28;45379;-69
2023/06/07 07:10:22;;;;;;;;;21.50;20.75;;;;;;;;4940284;28;45550;-69
2023/06/07 07:12:47;;;;;;;;;20.00;18.75;;;;;;;;4957816;28;45387;-69
2023/06/07 07:15:12;;;;;;;;;20.00;18.25;;;;;;;;4957980;28;45959;-69
2023/06/07 07:17:43;;;;;;;;;19.25;17.00;;;;;;;;4951773;28;45376;-69
2023/06/07 07:20:10;;;;;;;;;21.75;17.50;;;;;;;;4946839;28;45444;-69
2023/06/07 07:22:35;;;;;;;;;15.00;13.25;;;;;;;;4961612;28;46450;-69
2023/06/07 07:25:00;;;;;;;;;20.00;18.75;;;;;;;;4944461;28;45860;-69
2023/06/07 07:27:26;;;;;;;;;21.00;19.75;;;;;;;;4945537;28;45358;-68
2023/06/07 07:29:51;;;;;;;;;23.00;19.75;;;;;;;;4947130;28;45275;-68
2023/06/07 07:32:16;;;;;;;;;20.75;16.75;;;;;;;;4946474;28;45888;-69
2023/06/07 07:34:42;;;;;;;;;19.50;18.00;;;;;;;;4948454;28;45347;-69
2023/06/07 07:37:07;;;;;;;;;20.00;17.50;;;;;;;;4946892;28;45428;-69
2023/06/07 07:39:32;;;;;;;;;21.25;17.25;;;;;;;;4948902;28;45378;-69
2023/06/07 07:41:57;;;;;;;;;23.50;19.75;;;;;;;;4946041;28;45422;-69
2023/06/07 07:44:23;;;;;;;;;18.50;17.00;;;;;;;;4946121;28;45480;-68
2023/06/07 07:46:48;;;;;;;;;16.50;15.75;;;;;;;;4948103;28;45243;-69
2023/06/07 07:49:13;;;;;;;;;18.25;17.00;;;;;;;;4947579;28;45429;-69
2023/06/07 07:51:38;;;;;;;;;17.50;13.75;;;;;;;;4945142;28;45475;-69
2023/06/07 07:54:04;;;;;;;;;21.25;16.50;;;;;;;;4947667;28;45386;-70
2023/06/07 07:56:30;;;;;;;;;21.50;20.25;;;;;;;;4945442;28;45444;-71
2023/06/07 07:58:55;;;;;;;;;15.75;14.25;;;;;;;;4948717;28;45521;-69
2023/06/07 08:01:21;;;;;;;;;16.00;15.50;;;;;;;;4945564;28;45429;-69
2023/06/07 08:03:47;;;;;;;;;15.00;14.50;;;;;;;;4947621;28;45435;-69
2023/06/07 08:06:12;;;;;;;;;17.00;16.00;;;;;;;;4946832;28;45403;-69
2023/06/07 08:08:38;;;;;;;;;20.50;16.25;;;;;;;;4945520;28;45323;-69
2023/06/07 08:11:03;;;;;;;;;17.75;16.75;;;;;;;;4947551;28;45345;-69
2023/06/07 08:13:28;;;;;;;;;16.75;14.00;;;;;;;;4945053;28;45343;-69
2023/06/07 08:15:54;;;;;;;;;20.50;19.75;;;;;;;;4946423;28;45391;-69
2023/06/07 08:18:19;;;;;;;;;11.00;9.25;;;;;;;;4947576;28;45320;-69
2023/06/07 08:20:44;;;;;;;;;15.50;13.25;;;;;;;;4944175;28;47295;-68
2023/06/07 08:23:09;;;;;;;;;17.25;15.75;;;;;;;;4947038;28;45537;-69
2023/06/07 08:25:35;;;;;;;;;15.75;13.25;;;;;;;;4945754;28;45651;-68
2023/06/07 08:28:00;;;;;;;;;20.50;16.25;;;;;;;;4945343;28;45512;-69
2023/06/07 08:30:25;;;;;;;;;12.00;11.25;;;;;;;;4947446;28;46320;-69
2023/06/07 08:32:51;;;;;;;;;15.00;15.00;;;;;;;;4946405;28;45493;-70
2023/06/07 08:35:16;;;;;;;;;17.25;14.75;;;;;;;;4946092;28;45399;-69
2023/06/07 08:37:41;;;;;;;;;14.25;14.25;;;;;;;;4945273;28;45615;-69
2023/06/07 08:40:08;;;;;;;;;17.00;15.00;;;;;;;;4947056;28;46420;-68
2023/06/07 08:42:33;;;;;;;;;17.25;14.50;;;;;;;;4947163;28;45531;-69
2023/06/07 08:44:59;;;;;;;;;15.00;12.50;;;;;;;;4947311;28;45479;-68
2023/06/07 08:47:25;;;;;;;;;16.50;14.00;;;;;;;;4937087;28;45452;-69
2023/06/07 08:49:54;;;;;;;;;16.75;15.50;;;;;;;;4936799;28;45761;-69
2023/06/07 08:52:20;;;;;;;;;13.50;13.25;;;;;;;;4936748;28;45394;-69
2023/06/07 08:54:47;;;;;;;;;12.00;10.75;;;;;;;;4946391;28;45366;-69
2023/06/07 08:57:14;;;;;;;;;13.00;12.75;;;;;;;;4946684;28;45613;-68
2023/06/07 08:59:41;;;;;;;;;13.25;13.00;;;;;;;;4944899;28;47336;-68
2023/06/07 09:02:07;;;;;;;;;11.50;10.50;;;;;;;;4946221;28;45529;-69
2023/06/07 09:04:34;;;;;;;;;16.25;16.25;;;;;;;;4946506;28;45484;-68
2023/06/07 09:07:00;;;;;;;;;17.25;16.00;;;;;;;;4944425;28;45510;-69
2023/06/07 09:09:25;;;;;;;;;15.75;14.25;;;;;;;;4944899;28;47138;-70
2023/06/07 09:11:51;;;;;;;;;13.25;13.25;;;;;;;;4953586;28;45573;-69
2023/06/07 09:14:17;;;;;;;;;15.00;13.00;;;;;;;;4955061;28;45505;-69
2023/06/07 09:16:55;;;;;;;;;15.75;14.75;;;;;;;;4956250;28;45397;-70
2023/06/07 09:19:31;;;;;;;;;12.75;12.75;;;;;;;;4955528;28;46531;-69
2023/06/07 09:21:57;;;;;;;;;10.50;10.50;;;;;;;;4955690;28;45493;-69
2023/06/07 09:24:27;;;;;;;;;12.50;10.50;;;;;;;;4947284;28;45347;-70
2023/06/07 09:26:52;;;;;;;;;13.00;12.75;;;;;;;;4945577;28;45445;-70
2023/06/07 09:29:18;;;;;;;;;14.25;14.25;;;;;;;;4946228;28;46259;-69
2023/06/07 09:31:43;;;;;;;;;14.00;12.50;;;;;;;;4943581;28;45698;-70
2023/06/07 09:34:20;;;;;;;;;12.75;12.50;;;;;;;;4944831;28;45554;-69
2023/06/07 09:36:53;;;;;;;;;12.50;12.00;;;;;;;;4938989;28;45541;-69
2023/06/07 09:39:23;;;;;;;;;11.75;9.50;;;;;;;;4936116;28;45529;-70
2023/06/07 09:41:48;;;;;;;;;15.75;14.50;;;;;;;;4940402;28;45496;-70
2023/06/07 09:44:20;;;;;;;;;13.00;11.25;;;;;;;;4955604;28;45320;-70
2023/06/07 09:46:45;;;;;;;;;10.75;10.75;;;;;;;;4955833;28;45480;-70
2023/06/07 09:49:10;;;;;;;;;12.25;11.50;;;;;;;;4954194;28;46763;-70
2023/06/07 09:51:42;;;;;;;;;8.50;8.50;;;;;;;;4955410;28;45423;-70
2023/06/07 09:54:09;;;;;;;;;9.00;9.00;;;;;;;;4949935;28;45542;-70
2023/06/07 09:56:40;;;;;;;;;12.75;11.00;;;;;;;;4943206;28;45544;-73
2023/06/07 09:59:13;;;;;;;;;13.00;10.75;;;;;;;;4944844;28;46101;-70
2023/06/07 10:01:42;;;;;;;;;11.75;11.75;;;;;;;;4944440;28;45463;-69
2023/06/07 10:04:08;;;;;;;;;10.75;10.75;;;;;;;;4945188;28;45526;-70
2023/06/07 10:06:37;;;;;;;;;13.25;11.25;;;;;;;;4942047;28;45406;-70
2023/06/07 10:09:05;;;;;;;;;11.00;10.50;;;;;;;;4938908;28;46712;-70
2023/06/07 10:11:31;;;;;;;;;8.75;8.75;;;;;;;;4945064;28;45362;-70
2023/06/07 10:13:57;;;;;;;;;11.00;10.25;;;;;;;;4939161;28;45826;-71
2023/06/07 10:16:24;;;;;;;;;11.75;10.50;;;;;;;;4938946;28;45445;-70
2023/06/07 10:18:53;;;;;;;;;10.50;9.25;;;;;;;;4939042;28;46360;-71
2023/06/07 10:21:20;;;;;;;;;13.25;11.00;;;;;;;;4939056;28;45477;-70
2023/06/07 10:23:57;;;;;;;;;12.00;12.00;;;;;;;;4942675;28;45674;-70
2023/06/07 10:26:31;;;;;;;;;10.25;9.50;;;;;;;;4948297;28;45394;-70
2023/06/07 10:29:17;;;;;;;;;9.25;9.00;;;;;;;;4947475;28;46464;-71
2023/06/07 10:31:46;;;;;;;;;11.75;11.75;;;;;;;;4948170;28;45494;-70
2023/06/07 10:34:13;;;;;;;;;13.00;11.00;;;;;;;;4947124;28;45389;-71
2023/06/07 10:36:38;;;;;;;;;11.75;11.75;;;;;;;;4948253;28;45397;-70
2023/06/07 10:39:04;;;;;;;;;10.00;10.00;;;;;;;;4947742;28;47232;-70
2023/06/07 10:41:29;;;;;;;;;10.25;10.00;;;;;;;;4949622;28;45410;-70
2023/06/07 10:43:55;;;;;;;;;11.00;11.00;;;;;;;;4947248;28;45376;-70
2023/06/07 10:46:23;;;;;;;;;11.00;11.00;;;;;;;;4948547;28;45419;-70
2023/06/07 10:48:48;;;;;;;;;11.25;10.25;;;;;;;;4948631;28;46817;-71
2023/06/07 10:51:13;;;;;;;;;9.50;9.50;;;;;;;;4946531;28;45612;-70
2023/06/07 10:53:48;;;;;;;;;10.25;10.00;;;;;;;;4945903;28;45440;-70
2023/06/07 10:56:28;;;;;;;;;13.25;12.25;;;;;;;;4938989;28;45676;-70
2023/06/07 10:58:54;;;;;;;;;11.50;11.50;;;;;;;;4937631;28;46655;-71
2023/06/07 11:01:23;;;;;;;;;12.25;12.25;;;;;;;;4939196;28;45425;-70
2023/06/07 11:03:48;;;;;;;;;12.00;11.50;;;;;;;;4958056;28;45325;-70
2023/06/07 11:06:14;;;;;;;;;10.25;10.25;;;;;;;;4958166;28;45433;-71
2023/06/07 11:08:40;;;;;;;;;11.75;11.75;;;;;;;;4956583;28;45573;-71
2023/06/07 11:11:26;;;;;;;;;9.25;9.00;;;;;;;;4949512;28;45337;-70
2023/06/07 11:13:54;;;;;;;;;9.25;8.50;;;;;;;;4943315;28;45405;-71
2023/06/07 11:16:22;;;;;;;;;10.50;10.50;;;;;;;;4957732;28;45317;-70
2023/06/07 11:19:00;;;;;;;;;10.50;10.50;;;;;;;;4957752;28;45433;-70
2023/06/07 11:21:28;;;;;;;;;7.50;6.75;;;;;;;;4957669;28;45425;-71
2023/06/07 11:24:10;;;;;;;;;12.50;12.25;;;;;;;;4954227;28;45426;-70
2023/06/07 11:26:35;;;;;;;;;14.25;12.00;;;;;;;;4945714;28;45511;-70
2023/06/07 11:29:01;;;;;;;;;12.25;11.00;;;;;;;;4946694;28;45520;-70
2023/06/07 11:31:26;;;;;;;;;12.50;11.25;;;;;;;;4950847;28;45523;-71
2023/06/07 11:33:51;;;;;;;;;10.00;10.00;;;;;;;;4943193;28;45321;-70
2023/06/07 11:36:17;;;;;;;;;13.25;10.50;;;;;;;;4946727;28;45397;-70
2023/06/07 11:38:47;;;;;;;;;12.25;10.25;;;;;;;;4949607;28;46272;-70
2023/06/07 11:41:12;;;;;;;;;12.50;11.50;;;;;;;;4956171;28;45510;-71
2023/06/07 11:43:38;;;;;;;;;10.75;10.00;;;;;;;;4957043;28;45289;-71
2023/06/07 11:46:03;;;;;;;;;11.75;11.75;;;;;;;;4955610;28;45678;-70
2023/06/07 11:48:29;;;;;;;;;11.25;9.50;;;;;;;;4955692;28;48394;-71
2023/06/07 11:50:55;;;;;;;;;11.00;11.00;;;;;;;;4957447;28;45930;-67
2023/06/07 11:53:21;;;;;;;;;9.00;8.00;;;;;;;;4956653;28;45902;-70
2023/06/07 11:55:46;;;;;;;;;10.50;10.50;;;;;;;;4957090;28;45485;-69
2023/06/07 11:58:12;;;;;;;;;10.00;9.50;;;;;;;;4957241;28;46326;-69
2023/06/07 12:00:37;;;;;;;;;12.75;12.00;;;;;;;;4957079;28;45489;-69
2023/06/07 12:03:04;;;;;;;;;8.75;8.75;;;;;;;;4957158;28;45417;-70
2023/06/07 12:05:34;;;;;;;;;9.75;9.75;;;;;;;;4957349;28;45548;-69
2023/06/07 12:08:03;;;;;;;;;10.75;10.75;;;;;;;;4956714;28;46298;-70
2023/06/07 12:10:28;;;;;;;;;13.50;13.00;;;;;;;;4953843;28;45371;-70
2023/06/07 12:13:15;;;;;;;;;9.25;9.25;;;;;;;;4938033;28;45419;-69
2023/06/07 12:15:47;;;;;;;;;9.25;9.25;;;;;;;;4937494;28;45541;-71
2023/06/07 12:18:17;;;;;;;;;12.00;11.00;;;;;;;;4937412;28;47273;-68
2023/06/07 12:20:42;;;;;;;;;8.00;7.25;;;;;;;;4937518;28;45442;-69
2023/06/07 12:23:08;;;;;;;;;9.75;9.75;;;;;;;;4937298;28;46300;-69
2023/06/07 12:25:34;;;;;;;;;9.00;8.75;;;;;;;;4938584;28;45403;-70
2023/06/07 12:28:02;;;;;;;;;11.00;11.00;;;;;;;;4955694;28;45804;-70
2023/06/07 12:30:32;;;;;;;;;11.00;11.00;;;;;;;;4956541;28;45465;-69
2023/06/07 12:32:58;;;;;;;;;9.00;9.00;;;;;;;;4956807;28;45387;-68
2023/06/07 12:35:24;;;;;;;;;8.25;8.25;;;;;;;;4956725;28;45548;-69
2023/06/07 12:37:49;;;;;;;;;10.75;9.75;;;;;;;;4956487;28;46441;-69
2023/06/07 12:40:15;;;;;;;;;9.00;8.00;;;;;;;;4956865;28;45469;-69
2023/06/07 12:42:40;;;;;;;;;11.75;11.75;;;;;;;;4956608;28;45690;-69
2023/06/07 12:45:07;;;;;;;;;10.75;9.00;;;;;;;;4956309;28;45565;-69
2023/06/07 12:47:32;;;;;;;;;8.75;8.75;;;;;;;;4956615;28;45643;-69
2023/06/07 12:49:58;;;;;;;;;7.75;7.75;;;;;;;;4956656;28;45362;-69
2023/06/07 12:52:23;;;;;;;;;7.75;7.75;;;;;;;;4956850;28;45406;-69
2023/06/07 12:54:48;;;;;;;;;9.00;7.25;;;;;;;;4956332;28;45319;-69
2023/06/07 12:57:13;;;;;;;;;12.75;11.75;;;;;;;;4956570;28;46232;-69
2023/06/07 12:59:39;;;;;;;;;10.25;9.25;;;;;;;;4956199;28;45274;-69
2023/06/07 13:02:05;;;;;;;;;9.00;8.00;;;;;;;;4956432;28;45387;-68
2023/06/07 13:04:30;;;;;;;;;9.75;8.75;;;;;;;;4956486;28;45397;-69
2023/06/07 13:06:55;;;;;;;;;9.75;9.75;;;;;;;;4955738;28;45922;-68
2023/06/07 13:09:21;;;;;;;;;9.00;9.00;;;;;;;;4956265;28;45424;-69
2023/06/07 13:11:49;;;;;;;;;10.00;10.00;;;;;;;;4942372;28;45334;-69
2023/06/07 13:14:14;;;;;;;;;12.00;10.50;;;;;;;;4936733;28;45546;-70
2023/06/07 13:16:39;;;;;;;;;9.50;7.50;;;;;;;;4936717;28;45873;-71
2023/06/07 13:19:05;;;;;;;;;8.50;8.50;;;;;;;;4950876;28;45422;-70
2023/06/07 13:21:30;;;;;;;;;5.50;5.50;;;;;;;;4956371;28;45284;-69
2023/06/07 13:23:55;;;;;;;;;7.50;7.25;;;;;;;;4955894;28;45634;-69
2023/06/07 13:26:21;;;;;;;;;8.25;8.25;;;;;;;;4956106;28;47097;-69
2023/06/07 13:28:47;;;;;;;;;10.75;10.75;;;;;;;;4955878;28;45323;-69
2023/06/07 13:31:13;;;;;;;;;5.25;5.25;;;;;;;;4955697;28;45353;-71
2023/06/07 13:33:38;;;;;;;;;8.50;8.50;;;;;;;;4956067;28;45372;-69
2023/06/07 13:36:04;;;;;;;;;10.50;10.25;;;;;;;;4955935;28;46206;-70
2023/06/07 13:38:29;;;;;;;;;11.25;10.25;;;;;;;;4956536;28;45271;-69
2023/06/07 13:40:54;;;;;;;;;11.75;11.50;;;;;;;;4959749;28;45315;-69
2023/06/07 13:43:19;;;;;;;;;8.00;7.75;;;;;;;;4958490;28;45298;-69
2023/06/07 13:45:45;;;;;;;;;10.00;10.00;;;;;;;;4958863;28;45499;-71
2023/06/07 13:48:10;;;;;;;;;9.25;9.25;;;;;;;;4959358;28;45370;-69
2023/06/07 13:50:36;;;;;;;;;9.00;9.00;;;;;;;;4959195;28;45508;-69
2023/06/07 13:53:01;;;;;;;;;10.00;9.50;;;;;;;;4959129;28;45412;-69
2023/06/07 13:55:26;;;;;;;;;9.75;9.75;;;;;;;;4958482;28;46318;-69
2023/06/07 13:57:52;;;;;;;;;12.25;10.50;;;;;;;;4957197;28;45440;-69
2023/06/07 14:00:18;;;;;;;;;12.25;11.25;;;;;;;;4958314;28;45448;-69
2023/06/07 14:02:43;;;;;;;;;9.25;9.25;;;;;;;;4959045;28;45600;-71
2023/06/07 14:05:08;;;;;;;;;9.25;9.25;;;;;;;;4958842;28;47076;-70
2023/06/07 14:07:33;;;;;;;;;13.00;9.75;;;;;;;;4959160;28;45471;-69
2023/06/07 14:10:00;;;;;;;;;11.25;11.25;;;;;;;;4958914;28;45639;-71
2023/06/07 14:12:25;;;;;;;;;8.50;8.50;;;;;;;;4940107;28;45486;-70
2023/06/07 14:14:50;;;;;;;;;8.25;8.25;;;;;;;;4939490;28;47307;-71
2023/06/07 14:17:16;;;;;;;;;10.25;9.75;;;;;;;;4939354;28;45417;-69
2023/06/07 14:19:42;;;;;;;;;10.50;9.50;;;;;;;;4938537;28;45470;-69